sensor_id;sensor_type;location;lat;lon;timestamp;pressure;altitude;pressure_sealevel;temperature;humidity
74429;BME280;62860;52.134;23.714;2022-12-18T00:04:25;1036.2;;;-5.8;76.3
74429;BME280;62860;52.134;23.714;2022-12-18T00:10:06;1036.4;;;-5.8;76.3
74429;BME280;62860;52.134;23.714;2022-12-18T00:14:56;1036.5;;;-5.8;76.3
74429;BME280;62860;52.134;23.714;2022-12-18T00:19:44;1036.7;;;-5.9;76.4
74429;BME280;62860;52.134;23.714;2022-12-18T00:24:34;1036.8;;;-5.9;76.5
74429;BME280;62860;52.134;23.714;2022-12-18T00:29:24;1036.8;;;-5.9;76.6
74429;BME280;62860;52.134;23.714;2022-12-18T00:35:05;1036.9;;;-5.9;76.7
74429;BME280;62860;52.134;23.714;2022-12-18T00:39:24;1037;;;-5.9;76.9
74429;BME280;62860;52.134;23.714;2022-12-18T00:44:24;1037.1;;;-5.8;76.9
74429;BME280;62860;52.134;23.714;2022-12-18T00:50:04;1037.1;;;-5.8;76.9
74429;BME280;62860;52.134;23.714;2022-12-18T00:54:42;1037.2;;;-5.7;76.9
74429;BME280;62860;52.134;23.714;2022-12-18T01:00:07;1037.3;;;-5.7;76.9
74429;BME280;62860;52.134;23.714;2022-12-18T01:05:04;1037.3;;;-5.6;76.8
74429;BME280;62860;52.134;23.714;2022-12-18T01:09:54;1037.3;;;-5.7;76.8
74429;BME280;62860;52.134;23.714;2022-12-18T01:14:44;1037.4;;;-5.7;76.9
74429;BME280;62860;52.134;23.714;2022-12-18T01:19:50;1037.5;;;-5.8;77
74429;BME280;62860;52.134;23.714;2022-12-18T01:25:08;1037.6;;;-5.8;77
74429;BME280;62860;52.134;23.714;2022-12-18T01:29:36;1037.7;;;-5.9;77
74429;BME280;62860;52.134;23.714;2022-12-18T01:34:48;1037.8;;;-6;76.8
74429;BME280;62860;52.134;23.714;2022-12-18T01:40:08;1037.8;;;-6.1;76.8
74429;BME280;62860;52.134;23.714;2022-12-18T01:44:53;1037.8;;;-6.2;76.7
74429;BME280;62860;52.134;23.714;2022-12-18T01:50:09;1037.9;;;-6.3;76.7
74429;BME280;62860;52.134;23.714;2022-12-18T01:54:26;1038.1;;;-6.3;76.8
74429;BME280;62860;52.134;23.714;2022-12-18T01:59:57;1038.1;;;-6.3;76.7
74429;BME280;62860;52.134;23.714;2022-12-18T02:04:35;1038.2;;;-6.4;76.7
74429;BME280;62860;52.134;23.714;2022-12-18T02:09:50;1038.2;;;-6.4;76.7
74429;BME280;62860;52.134;23.714;2022-12-18T02:15:13;1038.4;;;-6.5;76.6
74429;BME280;62860;52.134;23.714;2022-12-18T02:19:39;1038.4;;;-6.5;76.6
74429;BME280;62860;52.134;23.714;2022-12-18T02:24:28;1038.5;;;-6.6;76.7
74429;BME280;62860;52.134;23.714;2022-12-18T02:29:25;1038.6;;;-6.7;76.7
74429;BME280;62860;52.134;23.714;2022-12-18T02:34:25;1038.7;;;-6.8;76.7
74429;BME280;62860;52.134;23.714;2022-12-18T02:39:58;1038.7;;;-6.9;76.8
74429;BME280;62860;52.134;23.714;2022-12-18T02:44:58;1038.7;;;-6.9;76.9
74429;BME280;62860;52.134;23.714;2022-12-18T02:49:50;1038.8;;;-6.9;76.8
74429;BME280;62860;52.134;23.714;2022-12-18T02:54:38;1038.9;;;-6.9;76.8
74429;BME280;62860;52.134;23.714;2022-12-18T02:59:25;1039;;;-6.9;76.7
74429;BME280;62860;52.134;23.714;2022-12-18T03:04:58;1039.2;;;-6.9;76.7
74429;BME280;62860;52.134;23.714;2022-12-18T03:09:26;1039.3;;;-7;76.7
74429;BME280;62860;52.134;23.714;2022-12-18T03:14:36;1039.3;;;-7;76.6
74429;BME280;62860;52.134;23.714;2022-12-18T03:19:46;1039.3;;;-7;76.5
74429;BME280;62860;52.134;23.714;2022-12-18T03:24:36;1039.4;;;-7;76.5
74429;BME280;62860;52.134;23.714;2022-12-18T03:30:09;1039.5;;;-7;76.5
74429;BME280;62860;52.134;23.714;2022-12-18T03:35:09;1039.7;;;-6.9;76.2
74429;BME280;62860;52.134;23.714;2022-12-18T03:40:00;1039.7;;;-6.9;76
74429;BME280;62860;52.134;23.714;2022-12-18T03:44:26;1039.8;;;-7;75.8
74429;BME280;62860;52.134;23.714;2022-12-18T03:49:50;1040;;;-7.1;76
74429;BME280;62860;52.134;23.714;2022-12-18T03:55:08;1040;;;-7.1;75.9
74429;BME280;62860;52.134;23.714;2022-12-18T03:59:36;1040;;;-7.1;75.3
74429;BME280;62860;52.134;23.714;2022-12-18T04:04:46;1040.1;;;-7.2;75.2
74429;BME280;62860;52.134;23.714;2022-12-18T04:09:24;1040.2;;;-7.2;75.1
74429;BME280;62860;52.134;23.714;2022-12-18T04:15:10;1040.4;;;-7.3;74.7
74429;BME280;62860;52.134;23.714;2022-12-18T04:20:10;1040.4;;;-7.3;74.5
74429;BME280;62860;52.134;23.714;2022-12-18T04:25:00;1040.4;;;-7.3;74.5
74429;BME280;62860;52.134;23.714;2022-12-18T04:30:00;1040.5;;;-7.5;74.5
74429;BME280;62860;52.134;23.714;2022-12-18T04:34:48;1040.6;;;-7.7;74.7
74429;BME280;62860;52.134;23.714;2022-12-18T04:40:11;1040.9;;;-7.9;74.8
74429;BME280;62860;52.134;23.714;2022-12-18T04:45:08;1040.9;;;-7.9;74.8
74429;BME280;62860;52.134;23.714;2022-12-18T04:49:24;1041;;;-8;74.7
74429;BME280;62860;52.134;23.714;2022-12-18T04:54:48;1040.9;;;-8.1;74.6
74429;BME280;62860;52.134;23.714;2022-12-18T04:59:24;1041;;;-8.1;74.6
74429;BME280;62860;52.134;23.714;2022-12-18T05:05:10;1041.2;;;-8.1;74.6
74429;BME280;62860;52.134;23.714;2022-12-18T05:10:09;1041.2;;;-8.1;74.6
74429;BME280;62860;52.134;23.714;2022-12-18T05:15:00;1041.3;;;-8.1;74.4
74429;BME280;62860;52.134;23.714;2022-12-18T05:19:58;1041.4;;;-8.2;74.8
74429;BME280;62860;52.134;23.714;2022-12-18T05:24:36;1041.5;;;-8.2;74.8
74429;BME280;62860;52.134;23.714;2022-12-18T05:29:56;1041.5;;;-8.1;74.6
74429;BME280;62860;52.134;23.714;2022-12-18T05:35:10;1041.7;;;-8.1;73.9
74429;BME280;62860;52.134;23.714;2022-12-18T05:39:30;1041.7;;;-8.1;73.9
74429;BME280;62860;52.134;23.714;2022-12-18T05:44:46;1041.8;;;-8.2;73.9
74429;BME280;62860;52.134;23.714;2022-12-18T05:49:36;1041.7;;;-8.2;73.9
74429;BME280;62860;52.134;23.714;2022-12-18T05:55:10;1041.9;;;-8.2;74
74429;BME280;62860;52.134;23.714;2022-12-18T06:00:11;1042;;;-8.2;73.9
74429;BME280;62860;52.134;23.714;2022-12-18T06:05:00;1042;;;-8.2;73.9
74429;BME280;62860;52.134;23.714;2022-12-18T06:10:00;1042.2;;;-8.2;73.5
74429;BME280;62860;52.134;23.714;2022-12-18T06:14:36;1042.4;;;-8.2;73.5
74429;BME280;62860;52.134;23.714;2022-12-18T06:20:08;1042.5;;;-8.3;73.7
74429;BME280;62860;52.134;23.714;2022-12-18T06:25:10;1042.7;;;-8.3;73.3
74429;BME280;62860;52.134;23.714;2022-12-18T06:29:30;1042.7;;;-8.3;73.3
74429;BME280;62860;52.134;23.714;2022-12-18T06:34:36;1042.8;;;-8.3;73.3
74429;BME280;62860;52.134;23.714;2022-12-18T06:39:24;1042.9;;;-8.4;73.3
74429;BME280;62860;52.134;23.714;2022-12-18T06:45:10;1043.1;;;-8.6;73.2
74429;BME280;62860;52.134;23.714;2022-12-18T06:50:11;1043.2;;;-8.6;73.2
74429;BME280;62860;52.134;23.714;2022-12-18T06:55:00;1043.2;;;-8.6;73.2
74429;BME280;62860;52.134;23.714;2022-12-18T06:59:48;1043.2;;;-8.6;73.2
74429;BME280;62860;52.134;23.714;2022-12-18T07:04:27;1043.3;;;-8.6;73.2
74429;BME280;62860;52.134;23.714;2022-12-18T07:10:11;1043.5;;;-8.4;72.9
74429;BME280;62860;52.134;23.714;2022-12-18T07:15:10;1043.6;;;-8.3;72.8
74429;BME280;62860;52.134;23.714;2022-12-18T07:19:36;1043.6;;;-8.3;72.8
74429;BME280;62860;52.134;23.714;2022-12-18T07:25:00;1043.7;;;-8.3;72.8
74429;BME280;62860;52.134;23.714;2022-12-18T07:29:48;1043.7;;;-8.3;72.5
74429;BME280;62860;52.134;23.714;2022-12-18T07:34:58;1043.8;;;-8.3;72.4
74429;BME280;62860;52.134;23.714;2022-12-18T07:40:11;1043.8;;;-8.3;72
74429;BME280;62860;52.134;23.714;2022-12-18T07:44:48;1043.8;;;-8.3;72
74429;BME280;62860;52.134;23.714;2022-12-18T07:49:58;1043.8;;;-8.2;72.1
74429;BME280;62860;52.134;23.714;2022-12-18T07:54:24;1043.9;;;-8;71.6
74429;BME280;62860;52.134;23.714;2022-12-18T08:00:09;1044;;;-7.8;71.4
74429;BME280;62860;52.134;23.714;2022-12-18T08:04:56;1044.1;;;-7.8;71.4
74429;BME280;62860;52.134;23.714;2022-12-18T08:09:24;1044.2;;;-7.7;71.6
74429;BME280;62860;52.134;23.714;2022-12-18T08:14:34;1044.2;;;-7.5;70.6
74429;BME280;62860;52.134;23.714;2022-12-18T08:19:35;1044.3;;;-7.4;70.5
74429;BME280;62860;52.134;23.714;2022-12-18T08:25:08;1044.4;;;-7.5;70.7
74429;BME280;62860;52.134;23.714;2022-12-18T08:30:09;1044.5;;;-7.5;71.3
74429;BME280;62860;52.134;23.714;2022-12-18T08:35:00;1044.6;;;-7.4;70.9
74429;BME280;62860;52.134;23.714;2022-12-18T08:39:48;1044.6;;;-7.4;70.6
74429;BME280;62860;52.134;23.714;2022-12-18T08:44:38;1044.6;;;-7.3;71.3
74429;BME280;62860;52.134;23.714;2022-12-18T08:49:58;1044.6;;;-7.2;71.2
74429;BME280;62860;52.134;23.714;2022-12-18T08:54:58;1044.6;;;-7;71
74429;BME280;62860;52.134;23.714;2022-12-18T08:59:36;1044.7;;;-6.9;70.5
74429;BME280;62860;52.134;23.714;2022-12-18T09:04:46;1044.8;;;-6.8;70.7
74429;BME280;62860;52.134;23.714;2022-12-18T09:10:10;1044.9;;;-6.8;70.7
74429;BME280;62860;52.134;23.714;2022-12-18T09:15:10;1044.9;;;-6.6;70.2
74429;BME280;62860;52.134;23.714;2022-12-18T09:19:36;1044.9;;;-6.6;70.2
74429;BME280;62860;52.134;23.714;2022-12-18T09:24:58;1045;;;-6.7;70.3
74429;BME280;62860;52.134;23.714;2022-12-18T09:29:36;1045.1;;;-6.4;70.2
74429;BME280;62860;52.134;23.714;2022-12-18T09:34:24;1045.1;;;-6.4;69.5
74429;BME280;62860;52.134;23.714;2022-12-18T09:39:58;1045.1;;;-6.3;69.1
74429;BME280;62860;52.134;23.714;2022-12-18T09:44:57;1045.2;;;-6.3;69.3
74429;BME280;62860;52.134;23.714;2022-12-18T09:49:37;1045.2;;;-6;68.7
74429;BME280;62860;52.134;23.714;2022-12-18T09:54:35;1045.2;;;-5.9;67.9
74429;BME280;62860;52.134;23.714;2022-12-18T10:00:09;1045.3;;;-5.9;68.8
74429;BME280;62860;52.134;23.714;2022-12-18T10:05:07;1045.3;;;-5.6;68.5
74429;BME280;62860;52.134;23.714;2022-12-18T10:09:36;1045.3;;;-5.4;67.5
74429;BME280;62860;52.134;23.714;2022-12-18T10:15:00;1045.4;;;-5.5;67.8
74429;BME280;62860;52.134;23.714;2022-12-18T10:19:46;1045.4;;;-5.6;68.3
74429;BME280;62860;52.134;23.714;2022-12-18T10:24:26;1045.4;;;-5.6;67.8
74429;BME280;62860;52.134;23.714;2022-12-18T10:29:58;1045.5;;;-5.5;67.5
74429;BME280;62860;52.134;23.714;2022-12-18T10:34:58;1045.5;;;-5.3;67.8
74429;BME280;62860;52.134;23.714;2022-12-18T10:40:08;1045.4;;;-5.2;67.6
74429;BME280;62860;52.134;23.714;2022-12-18T10:44:46;1045.4;;;-5.1;67.5
74429;BME280;62860;52.134;23.714;2022-12-18T10:50:11;1045.4;;;-5;67.3
74429;BME280;62860;52.134;23.714;2022-12-18T10:55:12;1045.5;;;-4.8;67
74429;BME280;62860;52.134;23.714;2022-12-18T10:59:35;1045.5;;;-4.6;65.8
74429;BME280;62860;52.134;23.714;2022-12-18T11:04:56;1045.6;;;-4.7;65.7
74429;BME280;62860;52.134;23.714;2022-12-18T11:09:45;1045.7;;;-4.7;65.9
74429;BME280;62860;52.134;23.714;2022-12-18T11:14:25;1045.6;;;-4.5;66
74429;BME280;62860;52.134;23.714;2022-12-18T11:19:57;1045.6;;;-4.5;65.5
74429;BME280;62860;52.134;23.714;2022-12-18T11:24:57;1045.6;;;-4.7;65.7
74429;BME280;62860;52.134;23.714;2022-12-18T11:29:27;1045.6;;;-4.6;65.3
74429;BME280;62860;52.134;23.714;2022-12-18T11:34:48;1045.6;;;-4.7;65.5
74429;BME280;62860;52.134;23.714;2022-12-18T11:40:10;1045.7;;;-4.7;66
74429;BME280;62860;52.134;23.714;2022-12-18T11:45:20;1045.6;;;-4.5;65.6
74429;BME280;62860;52.134;23.714;2022-12-18T11:49:36;1045.6;;;-4.5;65.6
74429;BME280;62860;52.134;23.714;2022-12-18T11:55:01;1045.7;;;-4.9;66.4
74429;BME280;62860;52.134;23.714;2022-12-18T11:59:27;1045.7;;;-4.8;66.1
74429;BME280;62860;52.134;23.714;2022-12-18T12:04:40;1045.8;;;-4.9;66.4
74429;BME280;62860;52.134;23.714;2022-12-18T12:10:03;1045.8;;;-4.9;66.6
74429;BME280;62860;52.134;23.714;2022-12-18T12:15:02;1045.8;;;-4.9;66.7
74429;BME280;62860;52.134;23.714;2022-12-18T12:19:29;1045.8;;;-4.9;66.9
74429;BME280;62860;52.134;23.714;2022-12-18T12:24:49;1045.8;;;-5;67
74429;BME280;62860;52.134;23.714;2022-12-18T12:30:09;1045.8;;;-5.2;67.4
74429;BME280;62860;52.134;23.714;2022-12-18T12:35:13;1045.9;;;-4.7;67.2
74429;BME280;62860;52.134;23.714;2022-12-18T12:39:27;1045.9;;;-4.7;67.2
74429;BME280;62860;52.134;23.714;2022-12-18T12:44:59;1045.8;;;-4.6;66.3
74429;BME280;62860;52.134;23.714;2022-12-18T12:50:02;1045.9;;;-4.8;66.7
74429;BME280;62860;52.134;23.714;2022-12-18T12:54:39;1045.9;;;-5.1;67.4
74429;BME280;62860;52.134;23.714;2022-12-18T13:00:03;1046;;;-5.2;67.9
74429;BME280;62860;52.134;23.714;2022-12-18T13:05:14;1046.2;;;-5.3;68.3
74429;BME280;62860;52.134;23.714;2022-12-18T13:10:52;1046.2;;;-5.3;68.3
74429;BME280;62860;52.134;23.714;2022-12-18T13:14:49;1046.3;;;-5.4;68.7
74429;BME280;62860;52.134;23.714;2022-12-18T13:19:48;1046.4;;;-5.5;69.1
74429;BME280;62860;52.134;23.714;2022-12-18T13:24:59;1046.5;;;-5.6;69.4
74429;BME280;62860;52.134;23.714;2022-12-18T13:29:40;1046.5;;;-5.5;69.4
74429;BME280;62860;52.134;23.714;2022-12-18T13:34:47;1046.7;;;-5.4;69.1
74429;BME280;62860;52.134;23.714;2022-12-18T13:39:31;1046.7;;;-5.4;69.2
74429;BME280;62860;52.134;23.714;2022-12-18T13:44:26;1046.8;;;-5.4;69.4
74429;BME280;62860;52.134;23.714;2022-12-18T13:50:09;1046.9;;;-5.4;69.5
74429;BME280;62860;52.134;23.714;2022-12-18T13:55:14;1046.9;;;-5.5;69.7
74429;BME280;62860;52.134;23.714;2022-12-18T13:59:47;1047.1;;;-5.5;69.8
74429;BME280;62860;52.134;23.714;2022-12-18T14:04:47;1047.1;;;-5.5;69.8
74429;BME280;62860;52.134;23.714;2022-12-18T14:10:01;1047.1;;;-5.5;69.9
74429;BME280;62860;52.134;23.714;2022-12-18T14:14:59;1047.1;;;-5.5;70
74429;BME280;62860;52.134;23.714;2022-12-18T14:19:35;1047.2;;;-5.6;70.1
74429;BME280;62860;52.134;23.714;2022-12-18T14:24:25;1047.3;;;-5.7;70.2
74429;BME280;62860;52.134;23.714;2022-12-18T14:29:35;1047.4;;;-5.7;70.5
74429;BME280;62860;52.134;23.714;2022-12-18T14:34:25;1047.5;;;-5.6;70.5
74429;BME280;62860;52.134;23.714;2022-12-18T14:40:11;1047.4;;;-5.8;70.6
74429;BME280;62860;52.134;23.714;2022-12-18T14:46:01;1047.4;;;-5.8;70.6
74429;BME280;62860;52.134;23.714;2022-12-18T14:49:35;1047.5;;;-6.2;71.2
74429;BME280;62860;52.134;23.714;2022-12-18T14:54:47;1047.7;;;-6.4;71.3
74429;BME280;62860;52.134;23.714;2022-12-18T15:00:03;1047.7;;;-6.5;71.4
74429;BME280;62860;52.134;23.714;2022-12-18T15:05:01;1047.7;;;-6.7;71.3
74429;BME280;62860;52.134;23.714;2022-12-18T15:09:37;1047.7;;;-6.8;71.1
74429;BME280;62860;52.134;23.714;2022-12-18T15:14:38;1047.8;;;-6.9;71.5
74429;BME280;62860;52.134;23.714;2022-12-18T15:19:49;1047.9;;;-7;71.4
74429;BME280;62860;52.134;23.714;2022-12-18T15:24:26;1047.8;;;-7.2;71.1
74429;BME280;62860;52.134;23.714;2022-12-18T15:30:16;1047.9;;;-7.3;71.8
74429;BME280;62860;52.134;23.714;2022-12-18T15:35:11;1047.9;;;-7.5;71.8
74429;BME280;62860;52.134;23.714;2022-12-18T15:39:25;1047.8;;;-7.6;71.5
74429;BME280;62860;52.134;23.714;2022-12-18T15:44:47;1048;;;-7.7;71
74429;BME280;62860;52.134;23.714;2022-12-18T15:50:01;1048.1;;;-7.8;71
74429;BME280;62860;52.134;23.714;2022-12-18T15:55:01;1048.1;;;-7.9;71.2
74429;BME280;62860;52.134;23.714;2022-12-18T15:59:37;1048.2;;;-8;71
74429;BME280;62860;52.134;23.714;2022-12-18T16:04:49;1048.3;;;-8.1;71.6
74429;BME280;62860;52.134;23.714;2022-12-18T16:09:25;1048.3;;;-8.1;72
74429;BME280;62860;52.134;23.714;2022-12-18T16:14:49;1048.3;;;-8.2;71.8
74429;BME280;62860;52.134;23.714;2022-12-18T16:20:11;1048.4;;;-8.3;71.7
74429;BME280;62860;52.134;23.714;2022-12-18T16:25:15;1048.7;;;-8.2;72
74429;BME280;62860;52.134;23.714;2022-12-18T16:29:47;1048.7;;;-8.2;72
74429;BME280;62860;52.134;23.714;2022-12-18T16:34:49;1048.7;;;-8.1;72.4
74429;BME280;62860;52.134;23.714;2022-12-18T16:39:51;1048.7;;;-8.1;71.9
74429;BME280;62860;52.134;23.714;2022-12-18T16:45:01;1048.7;;;-8.2;71.7
74429;BME280;62860;52.134;23.714;2022-12-18T16:49:38;1048.8;;;-8.2;71.1
74429;BME280;62860;52.134;23.714;2022-12-18T16:54:47;1048.8;;;-8.4;70.8
74429;BME280;62860;52.134;23.714;2022-12-18T16:59:49;1048.8;;;-8.5;70.7
74429;BME280;62860;52.134;23.714;2022-12-18T17:04:37;1048.7;;;-8.7;70.6
74429;BME280;62860;52.134;23.714;2022-12-18T17:10:10;1048.7;;;-8.8;70.4
74429;BME280;62860;52.134;23.714;2022-12-18T17:15:11;1048.8;;;-9.2;70
74429;BME280;62860;52.134;23.714;2022-12-18T17:19:47;1048.8;;;-9.2;70
74429;BME280;62860;52.134;23.714;2022-12-18T17:24:45;1048.8;;;-9.4;70.1
74429;BME280;62860;52.134;23.714;2022-12-18T17:29:59;1048.9;;;-9.5;70.2
74429;BME280;62860;52.134;23.714;2022-12-18T17:35:01;1049.1;;;-9.6;69.9
74429;BME280;62860;52.134;23.714;2022-12-18T17:39:39;1049;;;-9.7;69.9
74429;BME280;62860;52.134;23.714;2022-12-18T17:45:01;1049.1;;;-9.8;69.8
74429;BME280;62860;52.134;23.714;2022-12-18T17:50:01;1049.1;;;-9.9;69.9
74429;BME280;62860;52.134;23.714;2022-12-18T17:54:47;1049.2;;;-10;69.7
74429;BME280;62860;52.134;23.714;2022-12-18T18:00:12;1049.3;;;-10.2;69.3
74429;BME280;62860;52.134;23.714;2022-12-18T18:04:47;1049.3;;;-10.2;69.3
74429;BME280;62860;52.134;23.714;2022-12-18T18:09:49;1049.4;;;-10.3;69.4
74429;BME280;62860;52.134;23.714;2022-12-18T18:14:37;1049.5;;;-10.3;69.5
74429;BME280;62860;52.134;23.714;2022-12-18T18:20:01;1049.5;;;-10.4;69.3
74429;BME280;62860;52.134;23.714;2022-12-18T18:25:09;1049.5;;;-10.5;69.4
74429;BME280;62860;52.134;23.714;2022-12-18T18:29:25;1049.6;;;-10.6;69.7
74429;BME280;62860;52.134;23.714;2022-12-18T18:34:59;1049.5;;;-10.7;69.8
74429;BME280;62860;52.134;23.714;2022-12-18T18:39:51;1049.5;;;-10.7;69.9
74429;BME280;62860;52.134;23.714;2022-12-18T18:44:25;1049.5;;;-10.7;70.3
74429;BME280;62860;52.134;23.714;2022-12-18T18:50:11;1049.5;;;-10.6;70.6
74429;BME280;62860;52.134;23.714;2022-12-18T18:54:25;1049.5;;;-10.6;70.6
74429;BME280;62860;52.134;23.714;2022-12-18T18:59:47;1049.5;;;-10.6;70.6
74429;BME280;62860;52.134;23.714;2022-12-18T19:04:25;1049.4;;;-10.6;70.1
74429;BME280;62860;52.134;23.714;2022-12-18T19:10:01;1049.5;;;-10.7;69.7
74429;BME280;62860;52.134;23.714;2022-12-18T19:15:09;1049.5;;;-10.8;69.5
74429;BME280;62860;52.134;23.714;2022-12-18T19:19:47;1049.4;;;-10.8;69.2
74429;BME280;62860;52.134;23.714;2022-12-18T19:25:01;1049.5;;;-10.9;69.1
74429;BME280;62860;52.134;23.714;2022-12-18T19:30:01;1049.6;;;-11;69.6
74429;BME280;62860;52.134;23.714;2022-12-18T19:34:49;1049.6;;;-11.1;69.5
74429;BME280;62860;52.134;23.714;2022-12-18T19:39:59;1049.8;;;-11.1;69.3
74429;BME280;62860;52.134;23.714;2022-12-18T19:44:49;1049.8;;;-11.2;68.9
74429;BME280;62860;52.134;23.714;2022-12-18T19:49:47;1049.9;;;-11.3;68.6
74429;BME280;62860;52.134;23.714;2022-12-18T19:54:37;1049.9;;;-11.4;68.9
74429;BME280;62860;52.134;23.714;2022-12-18T20:00:01;1049.9;;;-11.5;69.1
74429;BME280;62860;52.134;23.714;2022-12-18T20:05:10;1050;;;-11.5;69.7
74429;BME280;62860;52.134;23.714;2022-12-18T20:09:49;1050;;;-11.5;69.7
74429;BME280;62860;52.134;23.714;2022-12-18T20:15:01;1050;;;-11.5;69.7
74429;BME280;62860;52.134;23.714;2022-12-18T20:20:01;1049.9;;;-11.5;69.5
74429;BME280;62860;52.134;23.714;2022-12-18T20:24:37;1050;;;-11.5;69.1
74429;BME280;62860;52.134;23.714;2022-12-18T20:30:11;1050;;;-11.6;68.8
74429;BME280;62860;52.134;23.714;2022-12-18T20:34:37;1050;;;-11.6;68.8
74429;BME280;62860;52.134;23.714;2022-12-18T20:39:35;1050.1;;;-11.7;69.1
74429;BME280;62860;52.134;23.714;2022-12-18T20:44:37;1050.2;;;-11.7;69.3
74429;BME280;62860;52.134;23.714;2022-12-18T20:50:01;1050.3;;;-11.7;70
74429;BME280;62860;52.134;23.714;2022-12-18T20:55:11;1050.5;;;-11.4;71.2
74429;BME280;62860;52.134;23.714;2022-12-18T20:59:25;1050.5;;;-11.4;71.2
74429;BME280;62860;52.134;23.714;2022-12-18T21:04:59;1050.6;;;-11.3;71.8
74429;BME280;62860;52.134;23.714;2022-12-18T21:10:03;1050.6;;;-11.3;73
74429;BME280;62860;52.134;23.714;2022-12-18T21:14:37;1050.6;;;-11.2;73.8
74429;BME280;62860;52.134;23.714;2022-12-18T21:20:09;1050.7;;;-11.1;73.1
74429;BME280;62860;52.134;23.714;2022-12-18T21:24:25;1050.8;;;-11;72.8
74429;BME280;62860;52.134;23.714;2022-12-18T21:29:49;1050.7;;;-11;72.4
74429;BME280;62860;52.134;23.714;2022-12-18T21:34:26;1050.6;;;-11.1;72.2
74429;BME280;62860;52.134;23.714;2022-12-18T21:40:01;1050.7;;;-11.1;72.2
74429;BME280;62860;52.134;23.714;2022-12-18T21:45:09;1050.6;;;-11.1;71.5
74429;BME280;62860;52.134;23.714;2022-12-18T21:49:35;1050.6;;;-11.2;71.1
74429;BME280;62860;52.134;23.714;2022-12-18T21:54:57;1050.5;;;-11.3;70.9
74429;BME280;62860;52.134;23.714;2022-12-18T21:59:57;1050.4;;;-11.4;70.8
74429;BME280;62860;52.134;23.714;2022-12-18T22:04:47;1050.3;;;-11.4;70.7
74429;BME280;62860;52.134;23.714;2022-12-18T22:10:07;1050.3;;;-11.5;70.6
74429;BME280;62860;52.134;23.714;2022-12-18T22:14:45;1050.2;;;-11.6;70.6
74429;BME280;62860;52.134;23.714;2022-12-18T22:19:45;1050.1;;;-11.7;70.7
74429;BME280;62860;52.134;23.714;2022-12-18T22:24:33;1050.1;;;-11.8;70.6
74429;BME280;62860;52.134;23.714;2022-12-18T22:30:05;1050.1;;;-11.9;70.4
74429;BME280;62860;52.134;23.714;2022-12-18T22:35:03;1050.2;;;-12;69.9
74429;BME280;62860;52.134;23.714;2022-12-18T22:39:26;1050.3;;;-12.1;70.4
74429;BME280;62860;52.134;23.714;2022-12-18T22:44:57;1050.2;;;-12.1;70.7
74429;BME280;62860;52.134;23.714;2022-12-18T22:49:53;1050.2;;;-12.1;70.9
74429;BME280;62860;52.134;23.714;2022-12-18T22:54:53;1050.1;;;-12.1;71.2
74429;BME280;62860;52.134;23.714;2022-12-18T23:00:03;1050;;;-12.1;71.2
74429;BME280;62860;52.134;23.714;2022-12-18T23:04:41;1050;;;-12;71.2
74429;BME280;62860;52.134;23.714;2022-12-18T23:09:43;1050;;;-12;71.3
74429;BME280;62860;52.134;23.714;2022-12-18T23:14:25;1049.9;;;-12;71.4
74429;BME280;62860;52.134;23.714;2022-12-18T23:20:05;1049.8;;;-12;71.5
74429;BME280;62860;52.134;23.714;2022-12-18T23:25:07;1049.8;;;-12.1;72.2
74429;BME280;62860;52.134;23.714;2022-12-18T23:29:25;1050;;;-12.1;72.2
74429;BME280;62860;52.134;23.714;2022-12-18T23:34:55;1050;;;-12;72.7
74429;BME280;62860;52.134;23.714;2022-12-18T23:39:55;1050;;;-12;73
74429;BME280;62860;52.134;23.714;2022-12-18T23:45:05;1050.1;;;-12;73.1
74429;BME280;62860;52.134;23.714;2022-12-18T23:49:57;1050.2;;;-12;73
74429;BME280;62860;52.134;23.714;2022-12-18T23:54:57;1050.3;;;-11.9;72.5
74429;BME280;62860;52.134;23.714;2022-12-18T23:59:35;1050.3;;;-12;72
